Tiempo atmosférico en la estación meteorológica de Tijarafe, Santa Cruz de Tenerife (733 m.)



Fecha
DESCASC
Temp. máxima en grados centígrados (hora)
DESCASC
Temp. mínima en grados centígrados (hora)
DESCASC
Temp. media en grados centígrados
DESCASC
Racha de viento máxima en m/sg (hora)
DESCASC
Velocidad máxima media en intervalos de 10 minutos(hora)
DESCASC
Precipitaciones diarias en mm
DESCASC
Precipitaciones de 00:00 a 06:00 en mm
DESCASC
Precipitaciones de 06:00 a 12:00 en mm
DESCASC
Precipitaciones de 12:00 a 18:00 en mm
DESCASC
Precipitaciones de 18:00 a 24:00 en mm
DESCASC
16-04-2019 18 (14:30) 11.3 (23:30) 14.7 7.5 (15:50) 5.28 (20:00) 0 0 0 0 0
15-04-2019 18 (12:10) 11.4 (02:30) 14.7 5 (11:40) 2.5 (15:00) 0 0 0 0 0
14-04-2019 17.9 (16:50) 10.6 (00:00) 14.3 10 (17:20) 6.94 (17:30) 0 0 0 0 0
13-04-2019 19.2 (14:30) 10.5 (00:00) 14.9 8.61 (18:00) 5.83 (17:30) 0 0 0 0 0
12-04-2019 17.6 (17:00) 10.2 (00:00) 13.9 8.89 (14:50) 5.56 (15:00) 0 0 0 0 0
11-04-2019 18.1 (16:10) 10 (00:00) 14.1 6.67 (11:10) 3.89 (02:30) 0 0 0 0 0
10-04-2019 16.4 (12:00) 10.8 (00:00) 13.6 5 (11:30) 2.5 (23:20) 0 0 0 0 0
09-04-2019 16.4 (13:10) 10 (00:00) 13.2 5 (13:20) 2.78 (19:40) 0 0 0 0 0
08-04-2019 17.6 (16:10) 10.9 (00:00) 14.3 6.39 (17:10) 3.33 (17:30) 0 0 0 0 0
07-04-2019 15.1 (16:40) 9.9 (00:00) 12.5 7.22 (16:40) 4.72 (17:10) 0 0 0 0 0
06-04-2019 17.3 (14:00) 10 (00:00) 13.6 5.56 (16:00) 2.78 (16:00) 0 0 0 0 0
05-04-2019 18.1 (15:50) 9.9 (00:00) 14 11.39 (14:00) 6.67 (14:00) 0 0 0 0 0
04-04-2019 18.6 (18:20) 9.1 (00:00) 13.9 7.22 (14:20) 2.5 (14:30) 0.4 0 0.2 0.2 0
03-04-2019 14.8 (17:00) 8.9 (07:20) 11.8 15.56 (17:10) 10.28 (16:30) 1.4 0 0.2 0.4 0.8
02-04-2019 17.1 (17:10) 9 (00:00) 13.1 10.83 (05:50) 6.39 (06:10) 2.8 2.6 0.2 0 0
01-04-2019 14.5 (11:40) 9.4 (00:00) 11.9 5 (13:30) 3.33 (20:20) 12.2 0 0 3.8 8.4
31-03-2019 17.1 (15:50) 10.8 (00:00) 14 10.28 (15:30) 6.67 (15:30) 0 0 0 0 0
30-03-2019 17 (15:40) 9.2 (00:00) 13.1 11.39 (16:50) 6.39 (16:40) 0 0 0 0 0
29-03-2019 15.9 (15:20) 9.5 (00:00) 12.7 7.22 (14:30) 4.72 (16:00) 0.2 0 0.2 0 0
28-03-2019 14.5 (09:50) 10.3 (00:00) 12.4 7.78 (16:10) 5.28 (16:20) 0.8 0 0 0.8 0
27-03-2019 18.8 (15:30) 10.6 (00:00) 14.7 6.11 (16:20) 3.33 (14:30) 0 0 0 0 0
26-03-2019 18.7 (16:10) 9.7 (00:00) 14.2 7.22 (04:30) 5 (04:30) 0.2 0 0 0.2 0
25-03-2019 12.8 (10:40) 9.4 (00:00) 11.1 13.33 (06:30) 7.22 (06:30) 6.8 2.2 0 4.2 0.4
24-03-2019 17.6 (15:40) 10.7 (00:00) 14.2 7.5 (13:10) 4.72 (16:50) 0 0 0 0 0
23-03-2019 17.9 (17:20) 10 (00:00) 13.9 10 (01:40) 4.72 (03:10) 0 0 0 0 0
22-03-2019 19.1 (15:10) 11 (00:00) 15.1 10 (23:59) 3.61 (23:59) 0 0 0 0 0
21-03-2019 19.8 (13:30) 10.5 (00:00) 15.1 7.22 (21:00) 2.5 (13:00) 0 0 0 0 0
20-03-2019 18.4 (15:10) 9.6 (00:00) 14 5.28 (14:40) 2.5 (12:00) 0 0 0 0 0
19-03-2019 18 (15:30) 10.1 (00:00) 14.1 7.5 (09:00) 5 (04:30) 0 0 0 0 0

Gráficas

Temp. máximas Temp. mínimas Temp. medias Precipitaciones Rachas de viento máximas Velocidades máximas media en intervalos de 10 minutos

Datos horarios

Fecha y hora oficial Temperatura (ºC) Velocidad del viento (km/h) Dirección del viento Racha (km/h) Dirección de racha Precipitación (mm) Presión (hPa) Tendencia (hPa) Humedad (%)
2019-04-17 23:00:00 12.4 3 Nordeste 11 Este 0 -- -- 86
2019-04-17 22:00:00 13.1 2 Nordeste 10 Sudoeste 0 -- -- 79
2019-04-17 21:00:00 14.5 5 Noroeste 13 Oeste 0 -- -- 74
2019-04-17 20:00:00 17.5 3 Noroeste 18 Norte 0 -- -- 64
2019-04-17 19:00:00 17.8 14 Noroeste 26 Noroeste 0 -- -- 63
2019-04-17 18:00:00 18.9 14 Norte 26 Noroeste 0 -- -- 60
2019-04-17 17:00:00 19 9 Norte 22 Oeste 0 -- -- 59
2019-04-17 16:00:00 19 6 Norte 24 Noroeste 0 -- -- 58
2019-04-17 15:00:00 17.5 12 Noroeste 25 Noroeste 0 -- -- 65
2019-04-17 14:00:00 17.6 16 Norte 28 Noroeste 0 -- -- 66
2019-04-17 13:00:00 16.7 19 Norte 30 Norte 0 -- -- 73
2019-04-17 12:00:00 15.3 22 Norte 30 Norte 0 -- -- 82
2019-04-17 11:00:00 14.8 17 Norte 27 Norte 0 -- -- 85
2019-04-17 10:00:00 13.2 14 Norte 27 Norte 0 -- -- 94
2019-04-17 09:00:00 12.6 21 Norte 29 Norte 0.2 -- -- 98
2019-04-17 08:00:00 12.9 15 Norte 22 Nordeste 0.8 -- -- 98
2019-04-17 07:00:00 12.2 13 Norte 17 Norte 0 -- -- 96
2019-04-17 06:00:00 12.2 12 Norte 15 Norte 0 -- -- 92
2019-04-17 05:00:00 11.8 9 Norte 19 Nordeste 0 -- -- 91
2019-04-17 04:00:00 11.6 13 Norte 19 Norte 0 -- -- 92
2019-04-17 03:00:00 11.3 11 Norte 15 Norte 0 -- -- 90
2019-04-17 02:00:00 11.8 11 Norte 26 Nordeste 0 -- -- 85
2019-04-17 01:00:00 11.5 17 Norte 24 Norte 0 -- -- 82
2019-04-17 00:00:00 11.3 6 Nordeste 19 Nordeste 0 -- -- 80
2019-04-16 23:00:00 11.5 18 Nordeste 24 Norte 0 -- -- 80
2019-04-16 22:00:00 12.1 6 Nordeste 20 Norte 0 -- -- 76
2019-04-16 21:00:00 12.7 16 Norte 26 Norte 0 -- -- 76
2019-04-16 20:00:00 13.4 19 Norte 26 Norte 0 -- -- 84
2019-04-16 19:00:00 14.7 17 Norte 26 Noroeste 0 -- -- 76
2019-04-16 18:00:00 16.6 14 Norte 22 Noroeste 0 -- -- 66
2019-04-16 17:00:00 17.6 13 Noroeste 22 Noroeste 0 -- -- 61
2019-04-16 16:00:00 17.2 14 Norte 27 Norte 0 -- -- 60
2019-04-16 15:00:00 17.9 13 Noroeste 22 Noroeste 0 -- -- 58
2019-04-16 14:00:00 17.7 10 Noroeste 19 Noroeste 0 -- -- 58
2019-04-16 13:00:00 16.4 12 Noroeste 22 Noroeste 0 -- -- 62
2019-04-16 12:00:00 16.1 10 Norte 20 Noroeste 0 -- -- 63
2019-04-16 11:00:00 15.1 11 Norte 21 Noroeste 0 -- -- 67
2019-04-16 10:00:00 14.6 4 Norte 9 Norte 0 -- -- 71
2019-04-16 09:00:00 12.9 6 Nordeste 21 Nordeste 0 -- -- 77
2019-04-16 08:00:00 12 10 Norte 14 Nordeste 0 -- -- 80
2019-04-16 07:00:00 12.4 10 Nordeste 22 Nordeste 0 -- -- 78
2019-04-16 06:00:00 12.4 14 Nordeste 19 Nordeste 0 -- -- 79
2019-04-16 05:00:00 12.9 9 Nordeste 14 Nordeste 0 -- -- 85
2019-04-16 04:00:00 13.2 7 Norte 13 Norte 0 -- -- 87
2019-04-16 03:00:00 13.3 9 Norte 11 Nordeste 0 -- -- 89
2019-04-16 02:00:00 13.6 2 Norte 5 Noroeste 0 -- -- 95
2019-04-16 01:00:00 13.6 2 Oeste 5 Oeste 0 -- -- 92
2019-04-16 00:00:00 13.7 0 Calma 5 Sudoeste 0 -- -- 93
2019-04-15 23:00:00 14 3 Norte 6 Noroeste 0 -- -- 94
2019-04-15 22:00:00 14 0 Calma 6 Este 0 -- -- 92
2019-04-15 21:00:00 14.3 3 Norte 9 Norte 0 -- -- 92
2019-04-15 20:00:00 14.9 8 Norte 13 Norte 0 -- -- 88
2019-04-15 19:00:00 14.7 4 Sur 9 Noroeste 0 -- -- 90
2019-04-15 18:00:00 14.9 5 Noroeste 15 Noroeste 0 -- -- 89
2019-04-15 17:00:00 15.5 8 Noroeste 12 Norte 0 -- -- 83
2019-04-15 16:00:00 15.4 6 Noroeste 15 Noroeste 0 -- -- 83
2019-04-15 15:00:00 15.2 9 Norte 15 Noroeste 0 -- -- 84
2019-04-15 14:00:00 15.4 4 Noroeste 13 Norte 0 -- -- 82
2019-04-15 13:00:00 15.9 6 Noroeste 16 Noroeste 0 -- -- 82
2019-04-15 12:00:00 17.6 6 Norte 18 Noroeste 0 -- -- 76
2019-04-15 11:00:00 16.7 5 Norte 17 Sudoeste 0 -- -- 77
2019-04-15 10:00:00 14.2 5 Oeste 12 Sudoeste 0 -- -- 82
2019-04-15 09:00:00 13.2 0 Calma 8 Este 0 -- -- 89
2019-04-15 08:00:00 11.9 3 Nordeste 11 Norte 0 -- -- 92
2019-04-15 07:00:00 12 8 Norte 13 Norte 0 -- -- 87
2019-04-15 06:00:00 11.9 7 Sudeste 17 Sudeste 0 -- -- 88
2019-04-15 05:00:00 11.9 6 Sur 10 Sur 0 -- -- 88
2019-04-15 04:00:00 11.7 0 Calma 7 Norte 0 -- -- 87
2019-04-15 03:00:00 11.4 3 Norte 9 Noroeste 0 -- -- 91
2019-04-15 02:00:00 11.9 5 Este 14 Norte 0 -- -- 88
2019-04-15 01:00:00 11.7 3 Nordeste 9 Nordeste 0 -- -- 91
2019-04-15 00:00:00 11.6 3 Nordeste 10 Nordeste 0 -- -- 93
2019-04-14 23:00:00 12 0 Calma 10 Norte 0 -- -- 94
2019-04-14 22:00:00 12.7 3 Nordeste 19 Norte 0 -- -- 90
2019-04-14 21:00:00 13.3 12 Nordeste 23 Norte 0 -- -- 74
2019-04-14 20:00:00 14.2 15 Norte 27 Norte 0 -- -- 84
2019-04-14 19:00:00 14.4 17 Norte 35 Norte 0 -- -- 85
2019-04-14 18:00:00 14.9 22 Norte 36 Norte 0 -- -- 84
2019-04-14 17:00:00 17 17 Noroeste 28 Noroeste 0 -- -- 73
2019-04-14 16:00:00 16.2 14 Noroeste 30 Norte 0 -- -- 77
2019-04-14 15:00:00 15.9 22 Norte 34 Noroeste 0 -- -- 75
2019-04-14 14:00:00 16.6 23 Norte 33 Norte 0 -- -- 74
2019-04-14 13:00:00 16.5 14 Norte 30 Norte 0 -- -- 71
2019-04-14 12:00:00 15.2 22 Norte 33 Norte 0 -- -- 74
2019-04-14 11:00:00 15.4 5 Norte 12 Norte 0 -- -- 71
2019-04-14 10:00:00 13.9 3 Nordeste 11 Nordeste 0 -- -- 77
2019-04-14 09:00:00 12.7 4 Norte 12 Sudeste 0 -- -- 62
2019-04-14 08:00:00 12 2 Sur 19 Sudeste 0 -- -- 59
2019-04-14 07:00:00 11.3 0 Calma 9 Norte 0 -- -- 88
2019-04-14 06:00:00 12.5 0 Calma 9 Sur 0 -- -- 56
2019-04-14 05:00:00 12.5 0 Calma 15 Nordeste 0 -- -- 70
2019-04-14 04:00:00 10.8 9 Nordeste 21 Norte 0 -- -- 94
2019-04-14 03:00:00 11.1 12 Norte 14 Norte 0 -- -- 93
2019-04-14 02:00:00 11.7 3 Este 13 Sudeste 0 -- -- 93
2019-04-14 01:00:00 12.2 6 Noroeste 21 Sudeste 0 -- -- 81
2019-04-14 00:00:00 12.1 4 Nordeste 14 Nordeste 0 -- -- 93
2019-04-13 23:00:00 12.8 3 Nordeste 17 Sudeste 0 -- -- 94
2019-04-13 22:00:00 13.1 3 Norte 10 Norte 0 -- -- 91
2019-04-13 21:00:00 13.8 2 Noroeste 19 Norte 0 -- -- 88
2019-04-13 20:00:00 14.5 16 Norte 28 Norte 0 -- -- 87
2019-04-13 19:00:00 16.3 19 Norte 31 Norte 0 -- -- 77
2019-04-13 18:00:00 15.9 18 Norte 31 Norte 0 -- -- 79
2019-04-13 17:00:00 15.7 15 Norte 23 Noroeste 0 -- -- 81
2019-04-13 16:00:00 18 11 Noroeste 19 Noroeste 0 -- -- 70
2019-04-13 15:00:00 18.3 8 Noroeste 27 Sudoeste 0 -- -- 69
2019-04-13 14:00:00 18.6 6 Norte 28 Sudoeste 0 -- -- 65
2019-04-13 13:00:00 18.1 8 Noroeste 17 Nordeste 0 -- -- 66
2019-04-13 12:00:00 14.6 12 Norte 27 Norte 0 -- -- 83
2019-04-13 11:00:00 14.3 16 Norte 24 Norte 0 -- -- 81
2019-04-13 10:00:00 13.2 13 Norte 19 Norte 0 -- -- 81
2019-04-13 09:00:00 11.5 4 Norte 12 Norte 0 -- -- 95
2019-04-13 08:00:00 10.8 4 Norte 15 Oeste 0 -- -- 90
2019-04-13 07:00:00 10.7 3 Norte 23 Norte 0 -- -- 82
2019-04-13 06:00:00 10.7 18 Norte 22 Norte 0 -- -- 91
2019-04-13 05:00:00 10.7 10 Norte 14 Noroeste 0 -- -- 85
2019-04-13 04:00:00 10.7 4 Norte 14 Sudeste 0 -- -- 94
2019-04-13 03:00:00 10.8 4 Norte 9 Norte 0 -- -- 91
2019-04-13 02:00:00 11.1 5 Norte 24 Norte 0 -- -- 92
2019-04-13 01:00:00 11.2 15 Norte 19 Nordeste 0 -- -- 87
2019-04-13 00:00:00 11.4 2 Norte 9 Nordeste 0 -- -- 92
2019-04-12 23:00:00 11.9 3 Noroeste 8 Norte 0 -- -- 91
2019-04-12 22:00:00 12.2 3 Nordeste 5 Nordeste 0 -- -- 89
2019-04-12 21:00:00 12.8 3 Noroeste 13 Noroeste 0 -- -- 85
2019-04-12 20:00:00 15 7 Noroeste 19 Noroeste 0 -- -- 73
2019-04-12 19:00:00 16.1 4 Oeste 14 Sur 0 -- -- 69
2019-04-12 18:00:00 16.3 5 Sudoeste 15 Oeste 0 -- -- 69
2019-04-12 17:00:00 17.6 7 Noroeste 18 Oeste 0 -- -- 65
2019-04-12 16:00:00 15.6 5 Noroeste 28 Norte 0 -- -- 73
2019-04-12 15:00:00 15.5 20 Norte 32 Norte 0 -- -- 73
2019-04-12 14:00:00 16.2 11 Norte 19 Norte 0 -- -- 71
2019-04-12 13:00:00 14.9 7 Noroeste 19 Noroeste 0 -- -- 74
2019-04-12 12:00:00 16.2 7 Noroeste 22 Norte 0 -- -- 72
2019-04-12 11:00:00 14.6 6 Noroeste 17 Nordeste 0 -- -- 76
2019-04-12 10:00:00 13 3 Nordeste 12 Nordeste 0 -- -- 75
2019-04-12 09:00:00 10.8 4 Norte 11 Este 0 -- -- 83
2019-04-12 08:00:00 10.3 4 Norte 19 Norte 0 -- -- 80
2019-04-12 07:00:00 10.5 5 Noroeste 14 Norte 0 -- -- 78
2019-04-12 06:00:00 10.5 5 Noroeste 16 Sur 0 -- -- 79
2019-04-12 05:00:00 10.4 8 Noroeste 25 Nordeste 0 -- -- 77
2019-04-12 04:00:00 10.3 4 Norte 10 Norte 0 -- -- 84
2019-04-12 03:00:00 10.8 0 Calma 7 Norte 0 -- -- 89
2019-04-12 02:00:00 11 3 Noroeste 17 Sudeste 0 -- -- 89
2019-04-12 01:00:00 11.2 0 Calma 8 Sudoeste 0 -- -- 92
2019-04-12 00:00:00 11.3 2 Norte 6 Nordeste 0 -- -- 91
2019-04-11 23:00:00 12 4 Noroeste 11 Nordeste 0 -- -- 89
2019-04-11 22:00:00 11.8 2 Noroeste 11 Sudoeste 0 -- -- 88
2019-04-11 21:00:00 12.8 3 Noroeste 14 Sudoeste 0 -- -- 81
2019-04-11 20:00:00 14.9 4 Sudoeste 14 Noroeste 0 -- -- 72
2019-04-11 19:00:00 16 6 Noroeste 17 Norte 0 -- -- 69
2019-04-11 18:00:00 17.6 8 Norte 19 Este 0 -- -- 62
2019-04-11 17:00:00 17.4 5 Norte 15 Nordeste 0 -- -- 64
2019-04-11 16:00:00 17.8 6 Norte 17 Noroeste 0 -- -- 61
2019-04-11 15:00:00 17.1 7 Noroeste 18 Oeste 0 -- -- 65
2019-04-11 14:00:00 16.4 5 Noroeste 21 Noroeste 0 -- -- 71
2019-04-11 13:00:00 16.4 5 Noroeste 18 Sudoeste 0 -- -- 70
2019-04-11 12:00:00 15.8 6 Norte 24 Este 0 -- -- 70
2019-04-11 11:00:00 14.4 7 Oeste 18 Oeste 0 -- -- 67
2019-04-11 10:00:00 12.4 0 Calma 19 Sudoeste 0 -- -- 74
2019-04-11 09:00:00 10.5 3 Oeste 10 Oeste 0 -- -- 78
2019-04-11 08:00:00 10.5 3 Oeste 9 Norte 0 -- -- 90
2019-04-11 07:00:00 10 5 Noroeste 13 Nordeste 0 -- -- 80
2019-04-11 06:00:00 10 4 Noroeste 20 Sudeste 0 -- -- 83
2019-04-11 05:00:00 10.2 3 Norte 10 Sur 0 -- -- 85
2019-04-11 04:00:00 10.6 3 Noroeste 10 Sudeste 0 -- -- 81
2019-04-11 03:00:00 10.7 7 Nordeste 17 Nordeste 0 -- -- 85
2019-04-11 02:00:00 10.9 5 Noroeste 15 Sudoeste 0 -- -- 78
2019-04-11 01:00:00 10.7 3 Nordeste 12 Nordeste 0 -- -- 76
2019-04-11 00:00:00 11 3 Nordeste 14 Noroeste 0 -- -- 81
2019-04-10 23:00:00 11.2 2 Norte 13 Este 0 -- -- 78
2019-04-10 22:00:00 11.8 6 Noroeste 10 Noroeste 0 -- -- 86
2019-04-10 21:00:00 13.1 2 Nordeste 11 Nordeste 0 -- -- 82
2019-04-10 20:00:00 15.3 5 Norte 16 Nordeste 0 -- -- 76
2019-04-10 19:00:00 15.5 4 Norte 14 Sudoeste 0 -- -- 73
2019-04-10 18:00:00 16.1 5 Noroeste 15 Oeste 0 -- -- 70
2019-04-10 17:00:00 15.9 4 Noroeste 15 Oeste 0 -- -- 68
2019-04-10 16:00:00 14.9 5 Noroeste 14 Noroeste 0 -- -- 67
2019-04-10 15:00:00 15 6 Noroeste 13 Oeste 0 -- -- 72
2019-04-10 14:00:00 14.8 6 Noroeste 15 Norte 0 -- -- 77
2019-04-10 13:00:00 15.2 6 Noroeste 17 Noroeste 0 -- -- 74
2019-04-10 12:00:00 16.4 4 Noroeste 18 Oeste 0 -- -- 69
2019-04-10 11:00:00 14.9 6 Noroeste 13 Sudoeste 0 -- -- 75
2019-04-10 10:00:00 13.3 0 Calma 8 Sudoeste 0 -- -- 74
2019-04-10 09:00:00 11.2 0 Calma 5 Sudoeste 0 -- -- 80
2019-04-10 08:00:00 11.1 2 Norte 5 Noroeste 0 -- -- 78
2019-04-10 07:00:00 10.8 0 Calma 10 Sudeste 0 -- -- 84
2019-04-10 06:00:00 11.2 0 Calma 8 Sudeste 0 -- -- 87
2019-04-10 05:00:00 11.3 5 Este 12 Nordeste 0 -- -- 87
2019-04-10 04:00:00 10.9 5 Norte 8 Norte 0 -- -- 94
2019-04-10 03:00:00 11 5 Nordeste 8 Norte 0 -- -- 93
2019-04-10 02:00:00 11.5 0 Calma 8 Nordeste 0 -- -- 94
2019-04-10 01:00:00 11.8 3 Norte 14 Norte 0 -- -- 94
2019-04-10 00:00:00 11.6 9 Norte 11 Nordeste 0 -- -- 93
2019-04-09 23:00:00 12.1 5 Norte 8 Norte 0 -- -- 94
2019-04-09 22:00:00 12.7 0 Calma 5 Sudoeste 0 -- -- 94
2019-04-09 21:00:00 13.1 0 Calma 4 Norte 0 -- -- 92
2019-04-09 20:00:00 13.3 4 Norte 15 Noroeste 0 -- -- 93
2019-04-09 19:00:00 12.9 9 Noroeste 14 Noroeste 0 -- -- 94
2019-04-09 18:00:00 14.2 2 Noroeste 9 Este 0 -- -- 82
2019-04-09 17:00:00 16 3 Norte 12 Sur 0 -- -- 77
2019-04-09 16:00:00 15.2 4 Noroeste 15 Sudeste 0 -- -- 84
2019-04-09 15:00:00 14.9 5 Oeste 15 Sudoeste 0 -- -- 85
2019-04-09 14:00:00 15.8 5 Noroeste 18 Oeste 0 -- -- 70
2019-04-09 13:00:00 16.1 7 Noroeste 16 Sudoeste 0 -- -- 78
2019-04-09 12:00:00 15.7 6 Norte 13 Norte 0 -- -- 73
2019-04-09 11:00:00 14.4 4 Norte 12 Noroeste 0 -- -- 73
2019-04-09 10:00:00 12.4 8 Norte 12 Norte 0 -- -- 78
2019-04-09 09:00:00 10.7 4 Este 8 Este 0 -- -- 85
2019-04-09 08:00:00 10.3 3 Este 10 Norte 0 -- -- 85
2019-04-09 07:00:00 10.3 3 Noroeste 6 Norte 0 -- -- 89
2019-04-09 06:00:00 10.2 0 Calma 6 Nordeste 0 -- -- 88
2019-04-09 05:00:00 10.3 3 Noroeste 6 Noroeste 0 -- -- 90
2019-04-09 04:00:00 10.2 0 Calma 5 Oeste 0 -- -- 88
2019-04-09 03:00:00 10.1 2 Noroeste 4 Noroeste 0 -- -- 85
2019-04-09 02:00:00 10.7 0 Calma 4 Este 0 -- -- 84
2019-04-09 01:00:00 10.8 0 Calma 7 Nordeste 0 -- -- 82
2019-04-09 00:00:00 11 2 Oeste 9 Nordeste 0 -- -- 76
2019-04-08 23:00:00 11.2 3 Norte 6 Norte 0 -- -- 76
2019-04-08 22:00:00 11.8 0 Calma 6 Nordeste 0 -- -- 74
2019-04-08 21:00:00 12.8 0 Calma 6 Oeste 0 -- -- 70
2019-04-08 20:00:00 14.2 2 Noroeste 13 Oeste 0 -- -- 65
2019-04-08 19:00:00 14.6 5 Noroeste 15 Noroeste 0 -- -- 65
2019-04-08 18:00:00 15.4 6 Noroeste 23 Noroeste 0 -- -- 61
2019-04-08 17:00:00 16.5 9 Noroeste 19 Noroeste 0 -- -- 57
2019-04-08 16:00:00 17.5 8 Noroeste 21 Noroeste 0 -- -- 55
2019-04-08 15:00:00 16.9 9 Noroeste 21 Norte 0 -- -- 57
2019-04-08 14:00:00 15.6 6 Norte 17 Norte 0 -- -- 63
2019-04-08 13:00:00 15.7 9 Noroeste 18 Noroeste 0 -- -- 63
2019-04-08 12:00:00 15.8 6 Noroeste 17 Noroeste 0 -- -- 63
2019-04-08 11:00:00 14.6 4 Noroeste 15 Noroeste 0 -- -- 61
2019-04-08 10:00:00 13 4 Norte 8 Norte 0 -- -- 67
2019-04-08 09:00:00 11.1 4 Norte 12 Norte 0 -- -- 71
2019-04-08 08:00:00 11.3 3 Norte 9 Norte 0 -- -- 73
2019-04-08 07:00:00 11.6 2 Nordeste 5 Este 0 -- -- 74
2019-04-08 06:00:00 11.8 0 Calma 6 Sudeste 0 -- -- 75
2019-04-08 05:00:00 11.8 0 Calma 6 Este 0 -- -- 84
2019-04-08 04:00:00 11.8 2 Este 6 Este 0 -- -- 84
2019-04-08 03:00:00 11.9 0 Calma 5 Norte 0 -- -- 86
2019-04-08 02:00:00 11.8 4 Norte 9 Norte 0 -- -- 84
2019-04-08 01:00:00 12 2 Nordeste 4 Nordeste 0 -- -- 80
2019-04-08 00:00:00 11.8 0 Calma 6 Sudeste 0 -- -- 83
2019-04-07 23:00:00 12.1 0 Calma 5 Nordeste 0 -- -- 85
2019-04-07 22:00:00 12.8 0 Calma 4 Norte 0 -- -- 85
2019-04-07 21:00:00 13.2 0 Calma 6 Noroeste 0 -- -- 85
2019-04-07 20:00:00 13.6 4 Noroeste 16 Norte 0 -- -- 81
2019-04-07 19:00:00 13.7 12 Norte 22 Norte 0 -- -- 71
2019-04-07 18:00:00 14.4 13 Noroeste 23 Noroeste 0 -- -- 71
2019-04-07 17:00:00 14.9 16 Noroeste 26 Norte 0 -- -- 70
2019-04-07 16:00:00 14.2 9 Noroeste 19 Noroeste 0 -- -- 79
2019-04-07 15:00:00 14.5 5 Norte 17 Noroeste 0 -- -- 78
2019-04-07 14:00:00 14.6 8 Noroeste 14 Noroeste 0 -- -- 74
2019-04-07 13:00:00 14.6 6 Norte 14 Oeste 0 -- -- 76
2019-04-07 12:00:00 13.6 5 Noroeste 10 Noroeste 0 -- -- 77
2019-04-07 11:00:00 13.7 3 Noroeste 8 Oeste 0 -- -- 75
2019-04-07 10:00:00 12.7 0 Calma 6 Sudeste 0 -- -- 78
2019-04-07 09:00:00 11.8 0 Calma 4 Este 0 -- -- 78
2019-04-07 08:00:00 11.4 3 Sudeste 10 Sudeste 0 -- -- 77
2019-04-07 07:00:00 11.3 9 Sudeste 18 Sudeste 0 -- -- 78
2019-04-07 06:00:00 11 5 Sudeste 14 Este 0 -- -- 80
2019-04-07 05:00:00 10.3 4 Sudeste 10 Este 0 -- -- 86
2019-04-07 04:00:00 10 0 Calma 5 Nordeste 0 -- -- 90
2019-04-07 03:00:00 10.6 0 Calma 3 Este 0 -- -- 88
2019-04-07 02:00:00 11.2 0 Calma 3 Noroeste 0 -- -- 86
2019-04-07 01:00:00 11.3 0 Calma 4 Norte 0 -- -- 87
2019-04-07 00:00:00 11.2 0 Calma 3 Noroeste 0 -- -- 85
2019-04-06 23:00:00 11.5 0 Calma 5 Sudoeste 0 -- -- 84
2019-04-06 22:00:00 12.1 2 Este 7 Sudoeste 0 -- -- 80
2019-04-06 21:00:00 12.9 3 Noroeste 13 Sudoeste 0 -- -- 75
2019-04-06 20:00:00 13.7 5 Sudoeste 14 Sur 0 -- -- 72
2019-04-06 19:00:00 14.4 3 Noroeste 13 Sudoeste 0 -- -- 68
2019-04-06 18:00:00 15.8 4 Norte 14 Noroeste 0 -- -- 63
2019-04-06 17:00:00 15.7 4 Noroeste 16 Norte 0 -- -- 62
2019-04-06 16:00:00 16.3 10 Noroeste 20 Noroeste 0 -- -- 60
2019-04-06 15:00:00 16 7 Oeste 18 Sur 0 -- -- 59
2019-04-06 14:00:00 17.3 8 Noroeste 20 Oeste 0 -- -- 53
2019-04-06 13:00:00 16.1 6 Noroeste 18 Oeste 0 -- -- 58
2019-04-06 12:00:00 14.8 8 Noroeste 18 Noroeste 0 -- -- 59
2019-04-06 11:00:00 13.5 4 Noroeste 16 Oeste 0 -- -- 67
2019-04-06 10:00:00 12.2 3 Noroeste 7 Noroeste 0 -- -- 74
2019-04-06 09:00:00 10.6 2 Noroeste 6 Nordeste 0 -- -- 81
2019-04-06 08:00:00 10 0 Calma 6 Nordeste 0 -- -- 83
2019-04-06 07:00:00 10.3 0 Calma 6 Este 0 -- -- 83
2019-04-06 06:00:00 10.3 2 Nordeste 6 Este 0 -- -- 84
2019-04-06 05:00:00 10 0 Calma 7 Nordeste 0 -- -- 84
2019-04-06 04:00:00 10.2 2 Norte 6 Este 0 -- -- 84
2019-04-06 03:00:00 10.1 0 Calma 4 Norte 0 -- -- 84
2019-04-06 02:00:00 10.1 2 Norte 5 Oeste 0 -- -- 83
2019-04-06 01:00:00 10.4 0 Calma 6 Sudoeste 0 -- -- 83
2019-04-06 00:00:00 11.1 2 Noroeste 9 Nordeste 0 -- -- 82
2019-04-05 23:00:00 11.2 2 Oeste 8 Oeste 0 -- -- 81
2019-04-05 22:00:00 11.6 2 Noroeste 9 Norte 0 -- -- 75
2019-04-05 21:00:00 12.4 3 Noroeste 12 Oeste 0 -- -- 70
2019-04-05 20:00:00 14.5 5 Oeste 35 Norte 0 -- -- 62
2019-04-05 19:00:00 16.7 15 Norte 37 Noroeste 0 -- -- 55
2019-04-05 18:00:00 17.2 13 Noroeste 31 Norte 0 -- -- 54
2019-04-05 17:00:00 17.5 13 Norte 36 Noroeste 0 -- -- 58
2019-04-05 16:00:00 17.4 8 Noroeste 30 Norte 0 -- -- 58
2019-04-05 15:00:00 16.4 9 Noroeste 37 Norte 0 -- -- 67
2019-04-05 14:00:00 14.4 24 Norte 41 Norte 0 -- -- 77
2019-04-05 13:00:00 15.2 6 Norte 18 Noroeste 0 -- -- 65
2019-04-05 12:00:00 15.7 6 Noroeste 19 Oeste 0 -- -- 63
2019-04-05 11:00:00 14.1 5 Nordeste 17 Oeste 0 -- -- 68
2019-04-05 10:00:00 12.2 3 Noroeste 9 Sur 0 -- -- 77
2019-04-05 09:00:00 10.1 4 Norte 10 Norte 0 -- -- 81
2019-04-05 08:00:00 10.1 3 Nordeste 10 Sudeste 0 -- -- 80
2019-04-05 07:00:00 9.9 3 Nordeste 9 Este 0 -- -- 85
2019-04-05 06:00:00 10.1 0 Calma 8 Nordeste 0 -- -- 84
2019-04-05 05:00:00 10.3 2 Norte 8 Nordeste 0 -- -- 86
2019-04-05 04:00:00 10.5 0 Calma 5 Norte 0 -- -- 87
2019-04-05 03:00:00 10.8 0 Calma 4 Nordeste 0 -- -- 88
2019-04-05 02:00:00 11 0 Calma 6 Norte 0 -- -- 88
2019-04-05 01:00:00 11 2 Norte 5 Noroeste 0 -- -- 89
2019-04-05 00:00:00 11 0 Calma 5 Noroeste 0 -- -- 88
2019-04-04 23:00:00 11.3 0 Calma 8 Nordeste 0 -- -- 88
2019-04-04 22:00:00 11.9 0 Calma 7 Sur 0 -- -- 87
2019-04-04 21:00:00 12.8 3 Norte 11 Nordeste 0 -- -- 82
2019-04-04 20:00:00 15.6 3 Noroeste 13 Este 0 -- -- 71
2019-04-04 19:00:00 17.3 5 Norte 17 Nordeste 0 -- -- 67
2019-04-04 18:00:00 17.4 6 Noroeste 15 Sudoeste 0 -- -- 65
2019-04-04 17:00:00 16.9 5 Norte 15 Sudoeste 0 -- -- 69
2019-04-04 16:00:00 17.2 6 Norte 20 Noroeste 0.2 -- -- 66
2019-04-04 15:00:00 17 7 Noroeste 26 Noroeste 0 -- -- 68
2019-04-04 14:00:00 17 7 Noroeste 19 Noroeste 0 -- -- 73
2019-04-04 13:00:00 15.1 5 Noroeste 15 Oeste 0 -- -- 77
2019-04-04 12:00:00 14.5 3 Norte 16 Nordeste 0 -- -- 83
2019-04-04 11:00:00 13.3 4 Norte 11 Nordeste 0 -- -- 83
2019-04-04 10:00:00 11 4 Nordeste 16 Nordeste 0 -- -- 94
2019-04-04 09:00:00 10.4 2 Nordeste 10 Sudeste 0 -- -- 98
2019-04-04 08:00:00 9.9 4 Norte 16 Nordeste 0.2 -- -- 98
2019-04-04 07:00:00 9.5 2 Nordeste 13 Norte 0 -- -- 98
2019-04-04 06:00:00 9.6 4 Norte 13 Sur 0 -- -- 97
2019-04-04 05:00:00 9.6 2 Sudeste 13 Sur 0 -- -- 97
2019-04-04 04:00:00 9.5 3 Este 15 Sudeste 0 -- -- 97
2019-04-04 03:00:00 9.4 0 Calma 13 Noroeste 0 -- -- 98
2019-04-04 02:00:00 9.4 3 Sudeste 9 Sudeste 0 -- -- 98
2019-04-04 01:00:00 9.3 2 Noroeste 9 Sur 0 -- -- 97
2019-04-04 00:00:00 9.6 3 Este 14 Norte 0 -- -- 98
2019-04-03 23:00:00 9.6 14 Norte 43 Noroeste 0.8 -- -- 98
2019-04-03 22:00:00 10.3 20 Norte 36 Norte 0 -- -- 94
2019-04-03 21:00:00 10.6 22 Norte 30 Norte 0 -- -- 89
2019-04-03 20:00:00 11.8 23 Norte 41 Norte 0 -- -- 86
2019-04-03 19:00:00 13.6 26 Norte 46 Norte 0 -- -- 78
2019-04-03 18:00:00 14 29 Norte 56 Norte 0 -- -- 80
2019-04-03 17:00:00 14.8 31 Norte 51 Norte 0 -- -- 74
2019-04-03 16:00:00 14.3 32 Norte 46 Norte 0 -- -- 79
2019-04-03 15:00:00 14.4 26 Norte 49 Noroeste 0 -- -- 77
2019-04-03 14:00:00 13.5 35 Norte 44 Norte 0 -- -- 80
2019-04-03 13:00:00 12.2 28 Norte 51 Noroeste 0.4 -- -- 91
2019-04-03 12:00:00 12.9 26 Norte 36 Norte 0 -- -- 84
2019-04-03 11:00:00 11 20 Norte 33 Norte 0.2 -- -- 90
2019-04-03 10:00:00 10.7 12 Norte 22 Norte 0 -- -- 84
2019-04-03 09:00:00 9.5 9 Norte 19 Nordeste 0 -- -- 77
2019-04-03 08:00:00 9.1 9 Norte 15 Noroeste 0 -- -- 84
2019-04-03 07:00:00 9.2 8 Norte 15 Norte 0 -- -- 93
2019-04-03 06:00:00 9.4 3 Norte 5 Norte 0 -- -- 93
2019-04-03 05:00:00 9.7 0 Calma 4 Sudeste 0 -- -- 91
2019-04-03 04:00:00 10 3 Norte 9 Este 0 -- -- 93
2019-04-03 03:00:00 9.7 9 Norte 13 Norte 0 -- -- 92
2019-04-03 02:00:00 10 0 Calma 3 Norte 0 -- -- 93
2019-04-03 01:00:00 10.5 0 Calma 3 Sur 0 -- -- 93
2019-04-03 00:00:00 10.6 0 Calma 6 Nordeste 0 -- -- 92
2019-04-02 23:00:00 11 0 Calma 5 Sur 0 -- -- 93
2019-04-02 22:00:00 11.5 0 Calma 10 Sur 0 -- -- 92
2019-04-02 21:00:00 12.2 0 Calma 9 Sudoeste 0 -- -- 89
2019-04-02 20:00:00 13.5 3 Norte 12 Sudeste 0 -- -- 83
2019-04-02 19:00:00 15.3 6 Noroeste 20 Oeste 0 -- -- 78
2019-04-02 18:00:00 15.2 6 Oeste 19 Noroeste 0 -- -- 73
2019-04-02 17:00:00 17 11 Noroeste 21 Noroeste 0 -- -- 68
2019-04-02 16:00:00 16.2 10 Noroeste 22 Oeste 0 -- -- 70
2019-04-02 15:00:00 15.5 8 Noroeste 23 Noroeste 0 -- -- 74
2019-04-02 14:00:00 12.7 9 Noroeste 18 Noroeste 0 -- -- 80
2019-04-02 13:00:00 13.6 6 Noroeste 18 Norte 0 -- -- 78
2019-04-02 12:00:00 12.7 9 Noroeste 17 Norte 0 -- -- 84
2019-04-02 11:00:00 11.5 10 Nordeste 17 Norte 0 -- -- 85
2019-04-02 10:00:00 10.3 9 Norte 12 Nordeste 0 -- -- 90
2019-04-02 09:00:00 10 7 Nordeste 13 Norte 0 -- -- 88
2019-04-02 08:00:00 10.5 2 Norte 15 Este 0 -- -- 82
2019-04-02 07:00:00 9.8 3 Sudeste 33 Norte 0.2 -- -- 83
2019-04-02 06:00:00 9.4 17 Norte 39 Sudeste 1.2 -- -- 90
2019-04-02 05:00:00 9 3 Sudeste 16 Sudeste 0.6 -- -- 96
2019-04-02 04:00:00 9.2 2 Este 13 Norte 0.4 -- -- 95
2019-04-02 03:00:00 9.5 8 Norte 11 Norte 0.2 -- -- 94
2019-04-02 02:00:00 9.7 4 Norte 8 Nordeste 0 -- -- 91
2019-04-02 01:00:00 9.4 5 Nordeste 10 Norte 0.2 -- -- 98
2019-04-02 00:00:00 9.5 0 Calma 17 Nordeste 1 -- -- 97
2019-04-01 23:00:00 9.6 4 Nordeste 16 Sudeste 1.8 -- -- 96
2019-04-01 22:00:00 10 4 Norte 12 Este 1.2 -- -- 91
2019-04-01 21:00:00 10.2 5 Este 17 Nordeste 1.6 -- -- 86
2019-04-01 20:00:00 10.6 9 Nordeste 11 Nordeste 0.6 -- -- 88
2019-04-01 19:00:00 11 6 Norte 14 Sudeste 2.2 -- -- 89
2019-04-01 18:00:00 10.7 5 Este 15 Noroeste 1.6 -- -- 85
2019-04-01 17:00:00 11.4 9 Norte 13 Nordeste 1.8 -- -- 91
2019-04-01 16:00:00 12.9 2 Oeste 9 Sudeste 0.4 -- -- 84
2019-04-01 15:00:00 13.7 3 Norte 9 Nordeste 0 -- -- 78
2019-04-01 14:00:00 13.2 3 Noroeste 18 Noroeste 0 -- -- 85
2019-04-01 13:00:00 13.9 6 Oeste 14 Sudoeste 0 -- -- 81
2019-04-01 12:00:00 14.5 4 Noroeste 15 Sudoeste 0 -- -- 79
2019-04-01 11:00:00 13.9 3 Norte 12 Sudoeste 0 -- -- 84
2019-04-01 10:00:00 12.9 4 Norte 10 Nordeste 0 -- -- 84
2019-04-01 09:00:00 11.1 3 Norte 8 Nordeste 0 -- -- 79
2019-04-01 08:00:00 10.7 0 Calma 10 Este 0 -- -- 78
2019-04-01 07:00:00 10.8 3 Oeste 6 Sudeste 0 -- -- 82
2019-04-01 06:00:00 10.5 3 Sudeste 6 Sudeste 0 -- -- 83
2019-04-01 05:00:00 10 3 Norte 7 Nordeste 0 -- -- 81
2019-04-01 04:00:00 10.5 2 Este 6 Este 0 -- -- 76
2019-04-01 03:00:00 10.2 2 Norte 6 Norte 0 -- -- 80
2019-04-01 02:00:00 10.9 0 Calma 5 Oeste 0 -- -- 77
2019-04-01 01:00:00 11.3 0 Calma 6 Sudeste 0 -- -- 79
2019-04-01 00:00:00 10.9 2 Norte 7 Sudeste 0 -- -- 81
2019-03-31 23:00:00 11.3 2 Norte 10 Este 0 -- -- 81
2019-03-31 22:00:00 12.2 2 Oeste 9 Norte 0 -- -- 76
2019-03-31 21:00:00 12.8 2 Oeste 21 Noroeste 0 -- -- 72
2019-03-31 20:00:00 14.9 13 Noroeste 22 Noroeste 0 -- -- 68
2019-03-31 19:00:00 16.7 15 Noroeste 24 Norte 0 -- -- 58
2019-03-31 18:00:00 17.1 15 Noroeste 27 Noroeste 0 -- -- 49
2019-03-31 17:00:00 17 20 Norte 30 Norte 0 -- -- 56
2019-03-31 16:00:00 16.9 21 Norte 37 Norte 0 -- -- 61
2019-03-31 15:00:00 16.4 23 Noroeste 32 Norte 0 -- -- 68
2019-03-31 14:00:00 15.7 21 Noroeste 30 Noroeste 0 -- -- 73
2019-03-31 13:00:00 15.4 14 Noroeste 26 Noroeste 0 -- -- 76
2019-03-31 12:00:00 14.9 10 Noroeste 17 Norte 0 -- -- 80
2019-03-31 11:00:00 13.9 8 Norte 19 Norte 0 -- -- 83
2019-03-31 10:00:00 12.7 5 Noroeste 12 Noroeste 0 -- -- 82
2019-03-31 09:00:00 11.3 3 Norte 8 Este 0 -- -- 80
2019-03-31 08:00:00 11.3 2 Norte 17 Nordeste 0 -- -- 77
2019-03-31 07:00:00 11.5 10 Norte 23 Nordeste 0 -- -- 77
2019-03-31 06:00:00 11.5 16 Nordeste 25 Nordeste 0 -- -- 74
2019-03-31 05:00:00 11 4 Norte 12 Noroeste 0 -- -- 79
2019-03-31 04:00:00 11.2 0 Calma 6 Oeste 0 -- -- 84
2019-03-31 00:00:00 11.2 3 Oeste 8 Noroeste 0 -- -- 87
2019-03-30 23:00:00 11 3 Norte 10 Este 0 -- -- 85
2019-03-30 22:00:00 11.2 3 Sudoeste 10 Norte 0 -- -- 91
2019-03-30 21:00:00 11.7 2 Norte 9 Sudoeste 0 -- -- 89
2019-03-30 20:00:00 12.1 4 Sudoeste 21 Noroeste 0 -- -- 86
2019-03-30 19:00:00 14 15 Noroeste 27 Noroeste 0 -- -- 77
2019-03-30 18:00:00 14.2 21 Norte 35 Noroeste 0 -- -- 77
2019-03-30 17:00:00 15.9 16 Norte 41 Noroeste 0 -- -- 73
2019-03-30 16:00:00 16.2 22 Norte 34 Norte 0 -- -- 66
2019-03-30 15:00:00 16.4 18 Norte 33 Noroeste 0 -- -- 65
2019-03-30 14:00:00 14.7 15 Noroeste 29 Norte 0 -- -- 71
2019-03-30 13:00:00 16.3 8 Noroeste 24 Norte 0 -- -- 65
2019-03-30 12:00:00 14.5 5 Oeste 18 Oeste 0 -- -- 66
2019-03-30 11:00:00 14.8 8 Oeste 18 Sudoeste 0 -- -- 66
2019-03-30 10:00:00 13.5 4 Noroeste 14 Sudoeste 0 -- -- 68
2019-03-30 09:00:00 11.1 4 Norte 10 Nordeste 0 -- -- 76
2019-03-30 08:00:00 9.8 3 Norte 10 Sudoeste 0 -- -- 73
2019-03-30 07:00:00 9.9 0 Calma 15 Sudeste 0 -- -- 72
2019-03-30 06:00:00 9.4 2 Nordeste 12 Sudeste 0 -- -- 76
2019-03-30 05:00:00 9.4 3 Norte 8 Sudeste 0 -- -- 77
2019-03-30 04:00:00 9.9 6 Sudeste 14 Sudeste 0 -- -- 77
2019-03-30 03:00:00 9.3 4 Norte 7 Norte 0 -- -- 82
2019-03-30 02:00:00 9.6 0 Calma 5 Sudeste 0 -- -- 79
2019-03-30 01:00:00 9.9 0 Calma 3 Este 0 -- -- 77
2019-03-30 00:00:00 10 0 Calma 4 Sudeste 0 -- -- 79
2019-03-29 23:00:00 10.3 0 Calma 9 Oeste 0 -- -- 77
2019-03-29 22:00:00 10.5 0 Calma 6 Este 0 -- -- 78
2019-03-29 21:00:00 10.8 2 Noroeste 12 Norte 0 -- -- 79
2019-03-29 20:00:00 11.3 12 Norte 17 Norte 0 -- -- 79
2019-03-29 19:00:00 13.8 12 Norte 18 Noroeste 0 -- -- 65
2019-03-29 18:00:00 13.7 10 Norte 23 Noroeste 0 -- -- 63
2019-03-29 17:00:00 13.7 10 Norte 22 Noroeste 0 -- -- 67
2019-03-29 16:00:00 14 17 Norte 24 Norte 0 -- -- 67
2019-03-29 15:00:00 15 15 Noroeste 26 Noroeste 0 -- -- 69
2019-03-29 14:00:00 15.2 12 Noroeste 22 Noroeste 0 -- -- 63
2019-03-29 13:00:00 13.9 10 Noroeste 21 Noroeste 0 -- -- 79
2019-03-29 12:00:00 14.4 13 Noroeste 22 Noroeste 0.2 -- -- 77
2019-03-29 11:00:00 13.7 9 Noroeste 21 Norte 0 -- -- 73
2019-03-29 10:00:00 13.5 3 Norte 6 Norte 0 -- -- 72
2019-03-29 09:00:00 11.5 0 Calma 8 Norte 0 -- -- 78
2019-03-29 08:00:00 9.7 0 Calma 4 Noroeste 0 -- -- 89
2019-03-29 07:00:00 9.5 2 Norte 9 Sudeste 0 -- -- 85
2019-03-29 06:00:00 9.5 3 Sudeste 12 Norte 0 -- -- 93
2019-03-29 05:00:00 9.9 9 Norte 12 Norte 0 -- -- 80
2019-03-29 04:00:00 10.5 4 Sudeste 14 Este 0 -- -- 85
2019-03-29 03:00:00 10.1 0 Calma 6 Este 0 -- -- 92
2019-03-29 02:00:00 10.4 0 Calma 7 Este -- -- -- 94
2019-03-29 01:00:00 10.6 0 Calma 6 Este 0 -- -- 94
2019-03-29 00:00:00 11.3 2 Noroeste 6 Oeste 0 -- -- 95
2019-03-28 23:00:00 11.1 0 Calma 5 Nordeste 0 -- -- 89
2019-03-28 22:00:00 11.3 0 Calma 5 Noroeste 0 -- -- 92
2019-03-28 21:00:00 11.9 0 Calma 4 Noroeste 0 -- -- 92
2019-03-28 20:00:00 12.5 2 Norte 8 Noroeste 0 -- -- 93
2019-03-28 19:00:00 13.9 4 Oeste 13 Oeste 0 -- -- 88
2019-03-28 18:00:00 13.3 7 Noroeste 18 Noroeste 0.4 -- -- 89
2019-03-28 17:00:00 12.5 10 Norte 28 Noroeste 0.4 -- -- 92
2019-03-28 16:00:00 12.8 13 Noroeste 27 Noroeste 0 -- -- 94
2019-03-28 15:00:00 13 15 Noroeste 24 Noroeste 0 -- -- 91
2019-03-28 14:00:00 14.2 10 Norte 18 Noroeste 0 -- -- 83
2019-03-28 13:00:00 13.4 7 Noroeste 18 Noroeste 0 -- -- 87
2019-03-28 12:00:00 13.6 6 Noroeste 15 Noroeste 0 -- -- 83
2019-03-28 11:00:00 14.2 8 Noroeste 17 Norte 0 -- -- 84
2019-03-28 10:00:00 14 3 Oeste 12 Noroeste 0 -- -- 83
2019-03-28 09:00:00 12.7 4 Norte 11 Norte 0 -- -- 85
2019-03-28 08:00:00 10.8 3 Norte 7 Sur 0 -- -- 92
2019-03-28 07:00:00 10.6 2 Nordeste 6 Sudeste 0 -- -- 94
2019-03-28 06:00:00 10.6 2 Norte 5 Norte 0 -- -- 88
2019-03-28 05:00:00 10.8 0 Calma 8 Sudeste 0 -- -- 89
2019-03-28 04:00:00 10.8 2 Noroeste 5 Noroeste 0 -- -- 89
2019-03-28 03:00:00 10.9 0 Calma 4 Noroeste 0 -- -- 90
2019-03-28 02:00:00 11.1 0 Calma 5 Noroeste 0 -- -- 92
2019-03-28 01:00:00 11.2 0 Calma 9 Nordeste 0 -- -- 92
2019-03-28 00:00:00 11.6 0 Calma 12 Norte 0 -- -- 92
2019-03-27 23:00:00 11.7 10 Norte 14 Norte 0 -- -- 88
2019-03-27 22:00:00 12.3 0 Calma 6 Sur 0 -- -- 88
2019-03-27 21:00:00 12.5 2 Nordeste 6 Norte 0 -- -- 88
2019-03-27 20:00:00 13.2 0 Calma 10 Sudoeste 0 -- -- 83
2019-03-27 19:00:00 14.9 4 Sudoeste 12 Sudoeste 0 -- -- 76
2019-03-27 18:00:00 15.9 4 Sur 13 Sudoeste 0 -- -- 73
2019-03-27 17:00:00 17.6 5 Oeste 22 Noroeste 0 -- -- 66
2019-03-27 16:00:00 18.6 11 Noroeste 22 Noroeste 0 -- -- 63
2019-03-27 15:00:00 18 8 Noroeste 21 Noroeste 0 -- -- 64
2019-03-27 14:00:00 17.9 8 Noroeste 19 Oeste 0 -- -- 63
2019-03-27 13:00:00 17.2 6 Oeste 21 Noroeste 0 -- -- 70
2019-03-27 12:00:00 16.5 6 Noroeste 17 Oeste 0 -- -- 77
2019-03-27 11:00:00 15.7 6 Oeste 17 Noroeste 0 -- -- 74
2019-03-27 10:00:00 14.8 4 Norte 12 Norte 0 -- -- 76
2019-03-27 09:00:00 13.1 0 Calma 10 Este 0 -- -- 81
2019-03-27 08:00:00 11.2 0 Calma 4 Nordeste 0 -- -- 88
2019-03-27 07:00:00 11 0 Calma 4 Norte 0 -- -- 89
2019-03-27 06:00:00 10.7 0 Calma 6 Sur 0 -- -- 94
2019-03-27 05:00:00 10.8 0 Calma 7 Sudeste 0 -- -- 91
2019-03-27 04:00:00 11.2 0 Calma 4 Oeste 0 -- -- 91
2019-03-27 03:00:00 11.6 0 Calma 6 Noroeste 0 -- -- 92
2019-03-27 02:00:00 12.2 0 Calma 5 Nordeste 0 -- -- 92
2019-03-27 01:00:00 12.3 0 Calma 4 Nordeste 0 -- -- 93
2019-03-27 00:00:00 12.4 0 Calma 8 Sudeste 0 -- -- 94
2019-03-26 23:00:00 13 0 Calma 8 Nordeste 0 -- -- 94
2019-03-26 22:00:00 13.3 0 Calma 9 Sur 0 -- -- 91
2019-03-26 21:00:00 13.6 2 Oeste 8 Noroeste 0 -- -- 94
2019-03-26 20:00:00 13.6 3 Noroeste 8 Sur 0 -- -- 90
2019-03-26 19:00:00 15.4 2 Norte 21 Norte 0 -- -- 81
2019-03-26 18:00:00 17.5 10 Noroeste 18 Noroeste 0.2 -- -- 68
2019-03-26 17:00:00 18.3 5 Noroeste 19 Noroeste 0 -- -- 67
2019-03-26 16:00:00 18.4 9 Noroeste 18 Noroeste 0 -- -- 70
2019-03-26 15:00:00 17.8 5 Noroeste 22 Oeste -- -- -- 69
2019-03-26 14:00:00 17.8 7 Noroeste 19 Sudoeste 0 -- -- 67
2019-03-26 13:00:00 17.2 9 Noroeste 19 Oeste 0 -- -- 74
2019-03-26 12:00:00 15.9 6 Norte 21 Noroeste 0 -- -- 81
2019-03-26 11:00:00 14.8 6 Noroeste 15 Noroeste 0 -- -- 80
2019-03-26 10:00:00 12.7 3 Sudeste 18 Este 0 -- -- 90
2019-03-26 09:00:00 12.4 3 Oeste 23 Noroeste 0 -- -- 85
2019-03-26 08:00:00 11.1 2 Este 14 Sudeste 0 -- -- 85
2019-03-26 07:00:00 10.6 4 Este 16 Noroeste 0 -- -- 91
2019-03-26 06:00:00 10.8 9 Nordeste 20 Este 0 -- -- 93
2019-03-26 05:00:00 10.4 8 Nordeste 26 Nordeste 0 -- -- 91
2019-03-26 04:00:00 9.7 13 Nordeste 20 Norte 0 -- -- 87
2019-03-26 03:00:00 10 6 Nordeste 14 Nordeste 0 -- -- 81
2019-03-26 02:00:00 10.3 0 Calma 6 Sudeste 0 -- -- 81
2019-03-26 01:00:00 10.3 0 Calma 9 Noroeste 0 -- -- 81
2019-03-26 00:00:00 10.5 3 Sudeste 11 Sudeste 0 -- -- 82
2019-03-25 23:00:00 9.7 5 Sudeste 13 Sudeste 0 -- -- 93
2019-03-25 22:00:00 9.5 2 Norte 8 Sudoeste 0 -- -- 92
2019-03-25 21:00:00 9.7 2 Noroeste 9 Norte 0 -- -- 92
2019-03-25 20:00:00 10.1 7 Norte 13 Norte 0 -- -- 93
2019-03-25 19:00:00 10.7 4 Norte 7 Norte 0.4 -- -- 92
2019-03-25 18:00:00 10.7 7 Nordeste 17 Norte 0.6 -- -- 92
2019-03-25 17:00:00 11.2 10 Norte 15 Noroeste 0 -- -- 93
2019-03-25 16:00:00 11.8 4 Norte 10 Norte 0 -- -- 93
2019-03-25 15:00:00 12.4 4 Oeste 9 Oeste 1.2 -- -- 91
2019-03-25 14:00:00 11.1 2 Noroeste 10 Sudoeste 2 -- -- 93
2019-03-25 13:00:00 11.9 5 Noroeste 12 Noroeste 0.4 -- -- 90
2019-03-25 12:00:00 11.7 2 Nordeste 19 Noroeste 0 -- -- 91
2019-03-25 11:00:00 11.7 10 Noroeste 15 Noroeste 0 -- -- 86
2019-03-25 10:00:00 11.9 2 Noroeste 6 Noroeste 0 -- -- 85
2019-03-25 09:00:00 11.1 4 Norte 11 Norte 0 -- -- 88
2019-03-25 08:00:00 9.9 8 Nordeste 21 Nordeste 0 -- -- 83
2019-03-25 07:00:00 9.9 13 Nordeste 48 Sudeste 0 -- -- 83
2019-03-25 06:00:00 9.8 7 Norte 21 Sudeste 0.2 -- -- 87
2019-03-25 05:00:00 10.1 3 Norte 7 Nordeste 1 -- -- 89
2019-03-25 04:00:00 10.1 4 Este 12 Noroeste 0.8 -- -- 92
2019-03-25 03:00:00 10.8 2 Oeste 7 Noroeste 0.2 -- -- 88
2019-03-25 02:00:00 11 2 Noroeste 4 Noroeste 0 -- -- 85
2019-03-25 01:00:00 10.9 2 Nordeste 8 Sudoeste 0 -- -- 85
2019-03-25 00:00:00 10.8 2 Noroeste 8 Oeste 0 -- -- 86
2019-03-24 23:00:00 10.9 2 Noroeste 8 Noroeste 0 -- -- 87
2019-03-24 22:00:00 11.1 0 Calma 3 Nordeste 0 -- -- 86
2019-03-24 21:00:00 11.6 0 Calma 3 Nordeste 0 -- -- 84
2019-03-24 20:00:00 11.9 0 Calma 10 Noroeste 0 -- -- 84
2019-03-24 19:00:00 12.8 4 Noroeste 18 Noroeste 0 -- -- 80
2019-03-24 18:00:00 13.4 4 Norte 26 Noroeste 0 -- -- 75
2019-03-24 17:00:00 13.7 17 Noroeste 27 Noroeste 0 -- -- 76
2019-03-24 16:00:00 17 15 Noroeste 26 Oeste 0 -- -- 62
2019-03-24 15:00:00 16.4 7 Oeste 21 Oeste 0 -- -- 59
2019-03-24 14:00:00 14.9 5 Noroeste 27 Noroeste 0 -- -- 67
2019-03-24 13:00:00 13.1 13 Noroeste 21 Oeste 0 -- -- 75
2019-03-24 12:00:00 13.2 12 Noroeste 19 Noroeste 0 -- -- 72
2019-03-24 11:00:00 13.3 4 Norte 14 Oeste 0 -- -- 68
2019-03-24 10:00:00 12.9 2 Norte 5 Noroeste 0 -- -- 74
2019-03-24 09:00:00 11.9 0 Calma 5 Noroeste 0 -- -- 80
2019-03-24 08:00:00 11.7 0 Calma 9 Oeste 0 -- -- 81
2019-03-24 07:00:00 11.7 0 Calma 8 Oeste 0 -- -- 81
2019-03-24 06:00:00 11.6 2 Norte 4 Este 0 -- -- 79
2019-03-24 05:00:00 11.5 0 Calma 16 Nordeste 0 -- -- 72
2019-03-24 04:00:00 11.6 3 Noroeste 10 Nordeste 0 -- -- 70
2019-03-24 03:00:00 11.8 0 Calma 5 Sudeste 0 -- -- 72
2019-03-24 02:00:00 12 0 Calma 8 Noroeste 0 -- -- 77
2019-03-24 01:00:00 11.7 0 Calma 5 Sudeste 0 -- -- 82
2019-03-24 00:00:00 11.2 0 Calma 6 Noroeste 0 -- -- 78
2019-03-23 23:00:00 11.3 4 Noroeste 12 Oeste 0 -- -- 73
2019-03-23 22:00:00 12.2 3 Norte 9 Noroeste 0 -- -- 66
2019-03-23 21:00:00 12.7 2 Este 8 Noroeste 0 -- -- 70
2019-03-23 20:00:00 13.3 4 Norte 13 Nordeste 0 -- -- 68
2019-03-23 19:00:00 14.8 5 Norte 13 Nordeste 0 -- -- 68
2019-03-23 18:00:00 17.4 6 Nordeste 16 Este 0 -- -- 61
2019-03-23 17:00:00 17.4 5 Norte 15 Noroeste 0 -- -- 60
2019-03-23 16:00:00 16.1 9 Noroeste 20 Noroeste 0 -- -- 67
2019-03-23 15:00:00 17.3 7 Oeste 19 Oeste 0 -- -- 59
2019-03-23 14:00:00 17.6 6 Oeste 21 Oeste 0 -- -- 58
2019-03-23 13:00:00 16.7 6 Noroeste 19 Noroeste 0 -- -- 64
2019-03-23 12:00:00 16.6 9 Noroeste 22 Norte 0 -- -- 61
2019-03-23 11:00:00 15.7 5 Norte 21 Sudoeste 0 -- -- 69
2019-03-23 10:00:00 13.9 8 Noroeste 28 Este 0 -- -- 70
2019-03-23 09:00:00 12.2 3 Noroeste 18 Sudoeste 0 -- -- 70
2019-03-23 08:00:00 10.6 7 Noroeste 30 Este 0 -- -- 68
2019-03-23 07:00:00 10.4 8 Noroeste 18 Norte 0 -- -- 78
2019-03-23 06:00:00 10.2 6 Nordeste 27 Nordeste 0 -- -- 75
2019-03-23 05:00:00 10.3 5 Sudoeste 18 Sudoeste 0 -- -- 74
2019-03-23 04:00:00 10.8 3 Sudeste 23 Nordeste 0 -- -- 77
2019-03-23 03:00:00 10.6 15 Norte 30 Nordeste 0 -- -- 79
2019-03-23 02:00:00 10.4 5 Nordeste 36 Nordeste 0 -- -- 76
2019-03-23 01:00:00 10.7 14 Nordeste 34 Nordeste 0 -- -- 76
2019-03-23 00:00:00 11 13 Nordeste 36 Norte 0 -- -- 76
2019-03-22 23:00:00 11.5 10 Nordeste 29 Norte 0 -- -- 74
2019-03-22 22:00:00 11.8 4 Sudeste 22 Oeste 0 -- -- 73
2019-03-22 21:00:00 12 6 Norte 30 Norte 0 -- -- 72
2019-03-22 20:00:00 12.7 3 Norte 18 Oeste 0 -- -- 69
2019-03-22 19:00:00 15.6 5 Norte 17 Nordeste 0 -- -- 62
2019-03-22 18:00:00 17.1 5 Norte 18 Sudeste 0 -- -- 62
2019-03-22 17:00:00 17.8 8 Norte 23 Sudoeste 0 -- -- 62
2019-03-22 16:00:00 17.8 7 Noroeste 24 Nordeste 0 -- -- 63
2019-03-22 15:00:00 18.5 7 Norte 26 Oeste 0 -- -- 55
2019-03-22 14:00:00 18.4 6 Norte 23 Nordeste 0 -- -- 57
2019-03-22 13:00:00 16.8 5 Norte 21 Sudoeste 0 -- -- 66
2019-03-22 12:00:00 17.5 7 Norte 19 Norte 0 -- -- 62
2019-03-22 11:00:00 16.6 6 Nordeste 23 Nordeste 0 -- -- 57
2019-03-22 10:00:00 14.1 7 Noroeste 33 Sudoeste 0 -- -- 64
2019-03-22 09:00:00 12.1 5 Nordeste 22 Este 0 -- -- 68
2019-03-22 08:00:00 11.3 10 Sur 25 Sudoeste 0 -- -- 66
2019-03-22 07:00:00 12 6 Sudoeste 16 Sudoeste 0 -- -- 59
2019-03-22 06:00:00 11.7 5 Norte 22 Sur 0 -- -- 56
2019-03-22 05:00:00 11.6 9 Sur 22 Sudoeste 0 -- -- 66
2019-03-22 04:00:00 11.8 4 Sudeste 26 Sudoeste 0 -- -- 63
2019-03-22 03:00:00 11.8 8 Sur 23 Sudoeste 0 -- -- 66
2019-03-22 02:00:00 13 0 Calma 22 Sudeste 0 -- -- 50
2019-03-22 01:00:00 12.8 10 Oeste 16 Oeste 0 -- -- 62
2019-03-22 00:00:00 12 7 Sudoeste 22 Norte 0 -- -- 69
2019-03-21 23:00:00 13 4 Nordeste 19 Sudoeste 0 -- -- 63
2019-03-21 22:00:00 12.6 9 Sudoeste 18 Sudeste 0 -- -- 68
2019-03-21 21:00:00 12.9 8 Sur 26 Sur 0 -- -- 68
2019-03-21 20:00:00 13.6 8 Sur 17 Sudeste 0 -- -- 79
2019-03-21 19:00:00 16.2 4 Nordeste 19 Sur 0 -- -- 67
2019-03-21 18:00:00 18.6 5 Este 17 Sur 0 -- -- 54
2019-03-21 17:00:00 17 4 Sudoeste 15 Noroeste 0 -- -- 63
2019-03-21 16:00:00 18.6 4 Noroeste 12 Noroeste 0 -- -- 62
2019-03-21 15:00:00 16.1 5 Sur 12 Sur 0 -- -- 74
2019-03-21 14:00:00 19.4 5 Norte 16 Noroeste 0 -- -- 58
2019-03-21 13:00:00 19.1 9 Noroeste 17 Noroeste 0 -- -- 66
2019-03-21 12:00:00 16.7 6 Sudoeste 19 Sudoeste 0 -- -- 73
2019-03-21 11:00:00 17.4 3 Noroeste 14 Sudoeste 0 -- -- 70
2019-03-21 10:00:00 15.5 4 Norte 12 Norte 0 -- -- 73
2019-03-21 09:00:00 12.1 5 Norte 9 Norte 0 -- -- 94
2019-03-21 08:00:00 10.8 0 Calma 5 Noroeste 0 -- -- 94
2019-03-21 07:00:00 10.6 0 Calma 9 Nordeste 0 -- -- 94
2019-03-21 06:00:00 10.9 2 Norte 5 Oeste 0 -- -- 93
2019-03-21 05:00:00 11 0 Calma 5 Sur 0 -- -- 94
2019-03-21 04:00:00 11.1 2 Norte 7 Norte 0 -- -- 94
2019-03-21 03:00:00 11.1 2 Norte 6 Oeste 0 -- -- 93
2019-03-21 02:00:00 10.8 0 Calma 10 Nordeste 0 -- -- 90
2019-03-21 01:00:00 11.4 3 Sudeste 12 Noroeste 0 -- -- 81
2019-03-21 00:00:00 11.3 3 Norte 8 Sur 0 -- -- 82
2019-03-20 23:00:00 11.5 0 Calma 12 Sudeste 0 -- -- 82
2019-03-20 22:00:00 11.8 3 Sudeste 10 Sudeste 0 -- -- 89
2019-03-20 21:00:00 12.1 2 Oeste 5 Norte 0 -- -- 87
2019-03-20 20:00:00 13.1 0 Calma 8 Noroeste 0 -- -- 82
2019-03-20 19:00:00 14.8 5 Noroeste 10 Noroeste 0 -- -- 74
2019-03-20 18:00:00 14.9 5 Noroeste 15 Noroeste 0 -- -- 75
2019-03-20 17:00:00 15.8 9 Noroeste 16 Noroeste 0 -- -- 69
2019-03-20 16:00:00 17.3 9 Noroeste 18 Noroeste 0 -- -- 62
2019-03-20 15:00:00 18 5 Noroeste 19 Oeste 0 -- -- 62
2019-03-20 14:00:00 17.7 7 Noroeste 19 Noroeste 0 -- -- 63
2019-03-20 13:00:00 17 4 Norte 18 Noroeste 0 -- -- 66
2019-03-20 12:00:00 16.2 9 Noroeste 18 Noroeste 0 -- -- 67
2019-03-20 11:00:00 14.5 5 Noroeste 13 Norte 0 -- -- 73
2019-03-20 10:00:00 13.9 3 Norte 9 Norte 0 -- -- 75
2019-03-20 09:00:00 12 2 Norte 5 Nordeste 0 -- -- 87
2019-03-20 08:00:00 9.9 0 Calma 4 Norte 0 -- -- 89
2019-03-20 07:00:00 9.7 2 Noroeste 14 Sur 0 -- -- 86
2019-03-20 06:00:00 10.1 4 Norte 17 Noroeste 0 -- -- 82
2019-03-20 05:00:00 9.6 3 Norte 9 Sudeste 0 -- -- 84
2019-03-20 04:00:00 9.8 0 Calma 12 Este 0 -- -- 82
2019-03-20 03:00:00 9.9 2 Noroeste 10 Sudoeste 0 -- -- 81
2019-03-20 02:00:00 10.4 2 Norte 7 Este 0 -- -- 80
2019-03-20 01:00:00 10.4 5 Nordeste 10 Norte 0 -- -- 84
2019-03-20 00:00:00 10.7 3 Norte 6 Sudeste 0 -- -- 80
2019-03-19 23:00:00 10.8 4 Nordeste 14 Nordeste 0 -- -- 76
2019-03-19 22:00:00 10.9 4 Noroeste 9 Oeste 0 -- -- 77
2019-03-19 21:00:00 11.7 2 Noroeste 9 Noroeste 0 -- -- 74
2019-03-19 20:00:00 12.4 3 Noroeste 14 Noroeste 0 -- -- 71
2019-03-19 19:00:00 14.7 3 Norte 12 Noroeste 0 -- -- 71
2019-03-19 18:00:00 15.7 6 Oeste 14 Oeste 0 -- -- 67
2019-03-19 17:00:00 16 7 Noroeste 17 Noroeste 0 -- -- 67
2019-03-19 16:00:00 16.7 7 Oeste 23 Noroeste 0 -- -- 63
2019-03-19 15:00:00 17.8 10 Noroeste 22 Noroeste 0 -- -- 60
2019-03-19 14:00:00 17.9 6 Noroeste 18 Norte 0 -- -- 59
2019-03-19 13:00:00 16.8 6 Noroeste 23 Noroeste 0 -- -- 62
2019-03-19 12:00:00 16.6 6 Noroeste 16 Sur 0 -- -- 64
2019-03-19 11:00:00 15.5 6 Noroeste 17 Sudoeste 0 -- -- 65
2019-03-19 10:00:00 13.8 4 Noroeste 14 Noroeste 0 -- -- 67
2019-03-19 09:00:00 11.8 5 Nordeste 27 Este 0 -- -- 75
2019-03-19 08:00:00 10.5 9 Nordeste 18 Norte 0 -- -- 82
2019-03-19 07:00:00 10.1 7 Norte 20 Norte 0 -- -- 80
2019-03-19 06:00:00 10.5 12 Norte 17 Nordeste 0 -- -- 76
2019-03-19 05:00:00 10.5 13 Nordeste 22 Nordeste 0 -- -- 82
2019-03-19 04:00:00 10.3 11 Nordeste 16 Norte 0 -- -- 80
2019-03-19 03:00:00 10.9 3 Nordeste 13 Nordeste 0 -- -- 74
2019-03-19 02:00:00 10.8 8 Nordeste 17 Nordeste 0 -- -- 76
2019-03-19 01:00:00 11.1 10 Nordeste 21 Nordeste 0 -- -- 78
2019-03-19 00:00:00 11.1 6 Norte 21 Nordeste 0 -- -- 77